createdAt,value
2022-09-16T00:15:55.103Z,3.00
2022-09-16T00:32:43.440Z,3.30
2022-09-16T00:49:32.736Z,3.20
2022-09-16T01:06:22.950Z,2.40
2022-09-16T01:23:38.057Z,2.50
2022-09-16T01:40:33.731Z,2.20
2022-09-16T01:57:25.609Z,2.30
2022-09-16T02:14:18.779Z,2.00
2022-09-16T02:31:10.985Z,1.70
2022-09-16T02:48:06.833Z,2.20
2022-09-16T03:04:54.946Z,2.00
2022-09-16T03:21:49.626Z,2.10
2022-09-16T03:38:40.586Z,2.10
2022-09-16T03:55:28.497Z,2.20
2022-09-16T04:12:16.503Z,2.70
2022-09-16T04:29:05.267Z,1.70
2022-09-16T04:45:54.494Z,3.00
2022-09-16T05:02:42.458Z,2.60
2022-09-16T05:19:30.804Z,2.30
2022-09-16T05:36:19.940Z,2.30
2022-09-16T05:53:09.440Z,2.30
2022-09-16T06:09:58.099Z,2.10
2022-09-16T06:26:48.649Z,2.10
2022-09-16T06:43:37.775Z,1.70
2022-09-16T07:00:30.326Z,1.70
2022-09-16T07:17:19.498Z,1.50
2022-09-16T07:34:12.504Z,1.30
2022-09-16T07:51:03.807Z,1.30
2022-09-16T08:07:52.954Z,1.40
2022-09-16T08:24:43.103Z,1.70
2022-09-16T08:41:51.924Z,1.80
2022-09-16T08:58:46.862Z,1.10
2022-09-16T09:15:43.435Z,1.10
2022-09-16T09:32:49.355Z,1.20
2022-09-16T09:49:42.885Z,1.00
2022-09-16T10:06:36.114Z,1.00
2022-09-16T10:23:29.925Z,1.50
2022-09-16T10:40:23.198Z,1.30
2022-09-16T10:57:26.198Z,0.90
2022-09-16T11:14:27.483Z,0.80
2022-09-16T11:31:31.457Z,0.90
2022-09-16T11:48:40.206Z,1.00
2022-09-16T12:05:32.657Z,0.70
2022-09-16T12:22:26.969Z,0.80
2022-09-16T12:39:16.027Z,0.70
2022-09-16T12:56:11.023Z,0.80
2022-09-16T13:13:01.863Z,0.90
2022-09-16T13:29:49.964Z,0.80
2022-09-16T13:46:39.509Z,0.80
2022-09-16T14:03:53.735Z,0.80
2022-09-16T14:20:51.999Z,0.80
2022-09-16T14:37:41.391Z,1.20
2022-09-16T14:54:30.541Z,0.70
2022-09-16T15:11:46.621Z,0.80
2022-09-16T15:28:31.884Z,0.80
2022-09-16T15:45:21.507Z,0.80
2022-09-16T16:02:25.462Z,0.70
2022-09-16T16:19:15.089Z,0.80
2022-09-16T16:36:04.127Z,0.80
2022-09-16T16:52:55.838Z,0.90
2022-09-16T17:09:44.454Z,1.30
2022-09-16T17:26:32.717Z,1.60
2022-09-16T17:43:20.983Z,1.50
2022-09-16T18:00:11.462Z,1.80
2022-09-16T18:17:00.121Z,1.70
2022-09-16T18:33:48.499Z,2.00
2022-09-16T18:50:38.056Z,2.40
2022-09-16T19:07:28.072Z,2.00
2022-09-16T19:24:18.275Z,2.10
2022-09-16T19:41:07.313Z,2.30
2022-09-16T19:57:55.527Z,2.70
2022-09-16T20:14:43.868Z,2.50
2022-09-16T20:31:33.744Z,2.50
2022-09-16T20:48:21.843Z,2.30
2022-09-16T21:05:11.967Z,2.20
2022-09-16T21:21:59.870Z,2.00
2022-09-16T21:38:48.688Z,2.00
2022-09-16T21:55:37.153Z,2.30
2022-09-16T22:12:25.253Z,2.40
2022-09-16T22:29:14.494Z,2.10
2022-09-16T22:46:08.188Z,2.40
2022-09-16T23:02:56.562Z,2.10
2022-09-16T23:19:44.515Z,2.20
2022-09-16T23:36:32.206Z,2.20
2022-09-16T23:53:20.243Z,1.80
